createdAt,value
2023-04-16T00:01:52.434Z,95800.63
2023-04-16T00:04:24.037Z,95797.28
2023-04-16T00:06:53.318Z,95784.50
2023-04-16T00:09:20.214Z,95784.38
2023-04-16T00:11:47.016Z,95799.41
2023-04-16T00:14:13.858Z,95806.66
2023-04-16T00:16:42.945Z,95799.91
2023-04-16T00:19:14.227Z,95789.81
2023-04-16T00:21:43.554Z,95807.28
2023-04-16T00:24:12.872Z,95809.16
2023-04-16T00:26:44.458Z,95791.28
2023-04-16T00:29:17.260Z,95791.41
2023-04-16T00:31:46.274Z,95811.38
2023-04-16T00:34:13.201Z,95807.66
2023-04-16T00:36:40.060Z,95779.09
2023-04-16T00:39:09.370Z,95794.50
2023-04-16T00:41:38.725Z,95777.16
2023-04-16T00:44:07.940Z,95791.66
2023-04-16T00:46:38.076Z,95805.47
2023-04-16T00:49:10.229Z,95794.13
2023-04-16T00:51:37.305Z,95790.56
2023-04-16T00:54:04.710Z,95786.38
2023-04-16T00:56:33.411Z,95796.22
2023-04-16T00:59:02.804Z,95775.31
2023-04-16T01:01:32.071Z,95779.56
2023-04-16T01:04:07.333Z,95784.53
2023-04-16T01:06:36.467Z,95774.31
2023-04-16T01:09:06.013Z,95791.53
2023-04-16T01:11:37.340Z,95792.66
2023-04-16T01:14:09.575Z,95802.13
2023-04-16T01:16:38.843Z,95788.59
2023-04-16T01:19:09.178Z,95782.81
2023-04-16T01:21:38.278Z,95807.06
2023-04-16T01:24:05.597Z,95790.41
2023-04-16T01:26:36.843Z,95793.50
2023-04-16T01:29:08.745Z,95815.41
2023-04-16T01:31:40.649Z,95803.47
2023-04-16T01:34:16.130Z,95814.06
2023-04-16T01:36:46.918Z,95820.09
2023-04-16T01:39:16.668Z,95808.28
2023-04-16T01:41:45.976Z,95797.94
2023-04-16T01:44:17.258Z,95792.63
2023-04-16T01:46:45.274Z,95808.28
2023-04-16T01:49:12.337Z,95799.16
2023-04-16T01:51:39.121Z,95812.59
2023-04-16T01:54:08.224Z,95822.06
2023-04-16T01:56:37.560Z,95807.91
2023-04-16T01:59:04.624Z,95807.56
2023-04-16T02:01:39.264Z,95817.13
2023-04-16T02:04:10.015Z,95809.38
2023-04-16T02:06:44.806Z,95811.09
2023-04-16T02:09:14.316Z,95828.22
2023-04-16T02:11:44.102Z,95818.72
2023-04-16T02:14:13.279Z,95802.22
2023-04-16T02:16:42.629Z,95825.16
2023-04-16T02:19:16.864Z,95809.88
2023-04-16T02:21:43.774Z,95810.13
2023-04-16T02:24:10.806Z,95811.13
2023-04-16T02:26:37.642Z,95813.94
2023-04-16T02:29:10.360Z,95822.06
2023-04-16T02:31:45.012Z,95818.78
2023-04-16T02:34:13.654Z,95810.13
2023-04-16T02:36:43.442Z,95811.97
2023-04-16T02:39:15.079Z,95811.13
2023-04-16T02:41:44.432Z,95810.84
2023-04-16T02:44:13.683Z,95811.75
2023-04-16T02:46:40.426Z,95825.41
2023-04-16T02:49:10.551Z,95819.72
2023-04-16T02:51:42.453Z,95831.94
2023-04-16T02:54:16.630Z,95833.91
2023-04-16T02:56:43.436Z,95833.41
2023-04-16T02:59:10.645Z,95824.03
2023-04-16T03:01:37.718Z,95834.13
2023-04-16T03:04:04.795Z,95837.59
2023-04-16T03:06:31.810Z,95831.31
2023-04-16T03:09:03.541Z,95841.78
2023-04-16T03:11:30.583Z,95838.81
2023-04-16T03:13:59.621Z,95839.31
2023-04-16T03:16:26.372Z,95838.44
2023-04-16T03:18:58.031Z,95848.53
2023-04-16T03:21:27.948Z,95837.59
2023-04-16T03:23:57.398Z,95832.06
2023-04-16T03:26:24.226Z,95839.78
2023-04-16T03:28:50.980Z,95832.41
2023-04-16T03:31:17.765Z,95840.03
2023-04-16T03:33:50.007Z,95836.00
2023-04-16T03:36:23.005Z,95845.00
2023-04-16T03:38:49.911Z,95839.97
2023-04-16T03:41:17.439Z,95847.06
2023-04-16T03:43:46.827Z,95844.13
2023-04-16T03:46:16.505Z,95836.63
2023-04-16T03:48:48.157Z,95855.31
2023-04-16T03:51:17.420Z,95849.41
2023-04-16T03:53:44.196Z,95855.81
2023-04-16T03:56:11.000Z,95844.75
2023-04-16T03:58:37.866Z,95850.78
2023-04-16T04:01:07.058Z,95849.19
2023-04-16T04:03:39.707Z,95874.44
2023-04-16T04:06:12.384Z,95869.50
2023-04-16T04:08:39.495Z,95855.22
2023-04-16T04:11:08.660Z,95874.94
2023-04-16T04:13:41.717Z,95877.63
2023-04-16T04:16:11.223Z,95875.91
2023-04-16T04:18:40.172Z,95865.19
2023-04-16T04:21:10.316Z,95875.28
2023-04-16T04:23:41.777Z,95883.19
2023-04-16T04:26:08.889Z,95870.50
2023-04-16T04:28:38.185Z,95885.91
2023-04-16T04:31:07.212Z,95857.41
2023-04-16T04:33:36.851Z,95877.38
2023-04-16T04:36:03.816Z,95880.47
2023-04-16T04:38:34.154Z,95856.81
2023-04-16T04:41:01.013Z,95871.34
2023-04-16T04:43:37.095Z,95876.88
2023-04-16T04:46:09.411Z,95860.75
2023-04-16T04:48:38.600Z,95887.50
2023-04-16T04:51:07.890Z,95888.69
2023-04-16T04:53:40.670Z,95888.84
2023-04-16T04:56:13.232Z,95912.41
2023-04-16T04:58:43.264Z,95896.88
2023-04-16T05:01:12.688Z,95899.31
2023-04-16T05:03:41.992Z,95905.50
2023-04-16T05:06:11.370Z,95893.41
2023-04-16T05:08:43.070Z,95895.72
2023-04-16T05:11:09.942Z,95893.53
2023-04-16T05:13:41.496Z,95916.19
2023-04-16T05:16:10.538Z,95912.59
2023-04-16T05:18:39.613Z,95918.03
2023-04-16T05:21:11.237Z,95916.47
2023-04-16T05:23:42.876Z,95927.91
2023-04-16T05:26:09.573Z,95926.69
2023-04-16T05:28:38.560Z,95945.03
2023-04-16T05:31:10.056Z,95908.41
2023-04-16T05:33:44.414Z,95935.78
2023-04-16T05:36:11.194Z,95922.84
2023-04-16T05:38:42.756Z,95928.53
2023-04-16T05:41:14.557Z,95926.88
2023-04-16T05:43:41.437Z,95932.97
2023-04-16T05:46:12.849Z,95937.03
2023-04-16T05:48:39.682Z,95917.19
2023-04-16T05:51:08.771Z,95938.22
2023-04-16T05:53:38.014Z,95938.50
2023-04-16T05:56:05.622Z,95929.59
2023-04-16T05:58:37.088Z,95926.03
2023-04-16T06:01:03.885Z,95938.03
2023-04-16T06:03:32.802Z,95946.53
2023-04-16T06:06:02.271Z,95954.50
2023-04-16T06:08:33.988Z,95957.97
2023-04-16T06:11:03.009Z,95941.34
2023-04-16T06:13:34.262Z,95957.72
2023-04-16T06:16:01.062Z,95942.34
2023-04-16T06:18:30.481Z,95942.34
2023-04-16T06:20:59.122Z,95955.03
2023-04-16T06:23:31.334Z,95964.75
2023-04-16T06:25:58.452Z,95958.09
2023-04-16T06:28:25.210Z,95945.41
2023-04-16T06:30:52.001Z,95954.53
2023-04-16T06:33:21.184Z,95945.16
2023-04-16T06:35:52.761Z,95949.59
2023-04-16T06:38:19.576Z,95958.22
2023-04-16T06:40:49.887Z,95976.31
2023-04-16T06:43:18.045Z,95973.72
2023-04-16T06:45:45.206Z,95964.03
2023-04-16T06:48:12.081Z,95963.50
2023-04-16T06:50:46.059Z,95972.13
2023-04-16T06:53:12.923Z,95970.19
2023-04-16T06:55:39.761Z,95978.44
2023-04-16T06:58:08.998Z,95976.56
2023-04-16T07:00:35.953Z,95982.88
2023-04-16T07:03:03.597Z,95983.88
2023-04-16T07:05:30.563Z,96000.97
2023-04-16T07:07:57.814Z,95980.88
2023-04-16T07:10:27.020Z,95994.94
2023-04-16T07:12:53.880Z,95986.56
2023-04-16T07:15:20.709Z,95979.78
2023-04-16T07:17:47.553Z,95990.38
2023-04-16T07:20:16.639Z,95982.38
2023-04-16T07:22:43.740Z,95981.88
2023-04-16T07:25:16.199Z,95985.69
2023-04-16T07:27:53.209Z,95982.13
2023-04-16T07:30:26.137Z,95985.56
2023-04-16T07:32:56.083Z,95975.56
2023-04-16T07:35:22.911Z,95978.28
2023-04-16T07:37:49.725Z,95986.69
2023-04-16T07:40:16.632Z,95985.31
2023-04-16T07:42:46.053Z,95995.66
2023-04-16T07:45:15.228Z,95989.63
2023-04-16T07:47:42.068Z,95995.31
2023-04-16T07:50:14.266Z,95989.00
2023-04-16T07:52:45.492Z,95998.97
2023-04-16T07:55:16.856Z,95999.56
2023-04-16T07:57:46.030Z,95976.69
2023-04-16T08:00:13.079Z,96006.88
2023-04-16T08:02:40.570Z,96011.19
2023-04-16T08:05:13.008Z,96003.16
2023-04-16T08:07:44.849Z,96011.31
2023-04-16T08:10:14.248Z,96006.47
2023-04-16T08:12:51.492Z,96007.84
2023-04-16T08:15:18.429Z,96004.53
2023-04-16T08:17:45.271Z,96008.66
2023-04-16T08:20:18.631Z,96014.59
2023-04-16T08:22:46.620Z,96028.41
2023-04-16T08:25:18.881Z,96027.91
2023-04-16T08:27:51.225Z,96019.53
2023-04-16T08:30:23.182Z,96033.47
2023-04-16T08:32:52.877Z,96015.56
2023-04-16T08:35:22.028Z,96030.97
2023-04-16T08:37:53.921Z,96017.28
2023-04-16T08:40:28.891Z,96015.91
2023-04-16T08:42:59.583Z,96037.97
2023-04-16T08:45:27.898Z,96035.38
2023-04-16T08:47:57.053Z,96033.88
2023-04-16T08:50:29.282Z,96040.44
2023-04-16T08:53:10.402Z,96027.63
2023-04-16T08:55:43.289Z,96036.38
2023-04-16T08:58:15.596Z,96045.22
2023-04-16T09:00:46.675Z,96051.75
2023-04-16T09:03:16.211Z,96048.03
2023-04-16T09:05:46.664Z,96054.16
2023-04-16T09:08:21.500Z,96049.22
2023-04-16T09:10:52.061Z,96056.75
2023-04-16T09:13:23.718Z,96076.09
2023-04-16T09:15:54.583Z,96065.72
2023-04-16T09:18:24.504Z,96062.34
2023-04-16T09:20:56.508Z,96066.78
2023-04-16T09:23:23.664Z,96069.50
2023-04-16T09:25:50.582Z,96061.97
2023-04-16T09:28:45.470Z,96062.19
2023-04-16T09:31:18.710Z,96055.03
2023-04-16T09:34:07.616Z,96066.25
2023-04-16T09:36:37.675Z,96065.09
2023-04-16T09:39:04.541Z,96064.69
2023-04-16T09:41:39.779Z,96051.34
2023-04-16T09:44:06.646Z,96055.75
2023-04-16T09:46:41.180Z,96064.84
2023-04-16T09:49:18.827Z,96062.22
2023-04-16T09:51:48.165Z,96066.03
2023-04-16T09:54:15.772Z,96052.84
2023-04-16T09:56:45.327Z,96058.75
2023-04-16T09:59:24.689Z,96065.84
2023-04-16T10:02:15.400Z,96074.47
2023-04-16T10:04:50.778Z,96078.09
2023-04-16T10:07:22.340Z,96073.34
2023-04-16T10:09:54.354Z,96068.41
2023-04-16T10:12:21.260Z,96067.38
2023-04-16T10:14:50.748Z,96069.38
2023-04-16T10:17:21.352Z,96077.72
2023-04-16T10:19:51.413Z,96077.31
2023-04-16T10:22:20.564Z,96078.91
2023-04-16T10:24:52.665Z,96083.22
2023-04-16T10:27:20.573Z,96080.59
2023-04-16T10:29:54.286Z,96072.25
2023-04-16T10:32:28.796Z,96060.34
2023-04-16T10:35:00.709Z,96076.91
2023-04-16T10:37:31.736Z,96085.22
2023-04-16T10:40:27.801Z,96078.16
2023-04-16T10:43:02.736Z,96078.28
2023-04-16T10:45:39.685Z,96073.94
2023-04-16T10:48:15.137Z,96081.00
2023-04-16T10:50:57.928Z,96076.78
2023-04-16T10:53:28.176Z,96079.63
2023-04-16T10:55:58.871Z,96075.53
2023-04-16T10:58:35.519Z,96075.13
2023-04-16T11:01:11.106Z,96078.59
2023-04-16T11:03:42.067Z,96075.22
2023-04-16T11:06:27.853Z,96087.75
2023-04-16T11:08:59.879Z,96061.28
2023-04-16T11:11:39.385Z,96091.47
2023-04-16T11:14:12.688Z,96086.28
2023-04-16T11:16:41.453Z,96086.41
2023-04-16T11:19:17.790Z,96079.75
2023-04-16T11:21:51.735Z,96096.66
2023-04-16T11:24:18.930Z,96093.06
2023-04-16T11:26:46.065Z,96094.41
2023-04-16T11:29:20.812Z,96092.44
2023-04-16T11:31:56.787Z,96100.88
2023-04-16T11:34:29.356Z,96100.75
2023-04-16T11:36:59.058Z,96094.44
2023-04-16T11:39:26.110Z,96090.00
2023-04-16T11:41:58.526Z,96098.03
2023-04-16T11:44:30.589Z,96106.66
2023-04-16T11:47:08.636Z,96094.22
2023-04-16T11:49:35.535Z,96095.50
2023-04-16T11:52:04.560Z,96098.44
2023-04-16T11:54:35.102Z,96096.41
2023-04-16T11:57:04.600Z,96098.66
2023-04-16T12:00:01.426Z,96094.44
2023-04-16T12:02:40.120Z,96108.22
2023-04-16T12:05:26.963Z,96107.06
2023-04-16T12:07:57.218Z,96101.38
2023-04-16T12:10:27.479Z,96094.19
2023-04-16T12:13:19.880Z,96102.31
2023-04-16T12:15:54.092Z,96105.38
2023-04-16T12:18:27.181Z,96095.91
2023-04-16T12:20:54.317Z,96102.63
2023-04-16T12:23:34.077Z,96106.03
2023-04-16T12:26:10.935Z,96106.44
2023-04-16T12:28:41.876Z,96113.63
2023-04-16T12:31:15.060Z,96102.75
2023-04-16T12:33:42.724Z,96116.47
2023-04-16T12:36:21.235Z,96122.38
2023-04-16T12:38:50.263Z,96108.75
2023-04-16T12:41:24.672Z,96105.38
2023-04-16T12:43:54.500Z,96112.34
2023-04-16T12:46:26.298Z,96116.13
2023-04-16T12:48:58.596Z,96113.56
2023-04-16T12:51:28.214Z,96107.25
2023-04-16T12:54:00.177Z,96113.16
2023-04-16T12:56:27.724Z,96120.34
2023-04-16T12:58:59.192Z,96113.56
2023-04-16T13:01:29.124Z,96106.84
2023-04-16T13:03:56.226Z,96117.19
2023-04-16T13:06:28.145Z,96116.66
2023-04-16T13:08:59.426Z,96108.63
2023-04-16T13:11:28.672Z,96114.72
2023-04-16T13:13:55.497Z,96114.13
2023-04-16T13:16:22.359Z,96115.59
2023-04-16T13:18:53.788Z,96109.38
2023-04-16T13:21:20.708Z,96109.81
2023-04-16T13:23:52.254Z,96111.06
2023-04-16T13:26:21.307Z,96118.56
2023-04-16T13:28:55.835Z,96128.16
2023-04-16T13:31:27.514Z,96105.69
2023-04-16T13:33:59.689Z,96113.16
2023-04-16T13:36:27.849Z,96118.66
2023-04-16T13:38:57.181Z,96115.91
2023-04-16T13:41:28.844Z,96112.88
2023-04-16T13:44:00.687Z,96114.34
2023-04-16T13:46:32.714Z,96130.19
2023-04-16T13:49:01.837Z,96126.59
2023-04-16T13:51:33.383Z,96122.47
2023-04-16T13:54:04.787Z,96136.91
2023-04-16T13:56:31.696Z,96139.25
2023-04-16T13:59:03.291Z,96121.09
2023-04-16T14:01:33.025Z,96130.91
2023-04-16T14:04:06.433Z,96116.97
2023-04-16T14:06:36.246Z,96131.03
2023-04-16T14:09:03.052Z,96131.34
2023-04-16T14:11:34.373Z,96129.84
2023-04-16T14:14:01.298Z,96135.44
2023-04-16T14:16:31.105Z,96136.59
2023-04-16T14:18:57.981Z,96136.59
2023-04-16T14:21:27.534Z,96134.63
2023-04-16T14:23:54.343Z,96138.41
2023-04-16T14:26:21.314Z,96134.19
2023-04-16T14:28:48.499Z,96128.28
2023-04-16T14:31:18.434Z,96127.53
2023-04-16T14:33:47.571Z,96121.19
2023-04-16T14:36:16.781Z,96128.28
2023-04-16T14:38:49.465Z,96130.72
2023-04-16T14:41:18.937Z,96137.56
2023-04-16T14:43:45.741Z,96133.56
2023-04-16T14:46:17.936Z,96123.84
2023-04-16T14:48:49.820Z,96134.19
2023-04-16T14:51:19.267Z,96126.16
2023-04-16T14:53:48.821Z,96128.59
2023-04-16T14:56:18.025Z,96123.13
2023-04-16T14:58:52.468Z,96129.03
2023-04-16T15:01:23.874Z,96133.47
2023-04-16T15:03:56.180Z,96128.47
2023-04-16T15:06:28.348Z,96139.66
2023-04-16T15:08:58.124Z,96133.75
2023-04-16T15:11:24.881Z,96133.34
2023-04-16T15:13:56.233Z,96144.09
2023-04-16T15:16:27.854Z,96135.25
2023-04-16T15:18:57.120Z,96140.00
2023-04-16T15:21:28.632Z,96139.38
2023-04-16T15:24:01.683Z,96136.91
2023-04-16T15:26:31.869Z,96138.41
2023-04-16T15:29:04.390Z,96133.97
2023-04-16T15:31:35.659Z,96135.88
2023-04-16T15:34:05.102Z,96136.50
2023-04-16T15:36:34.024Z,96138.53
2023-04-16T15:39:03.074Z,96135.78
2023-04-16T15:41:32.342Z,96146.41
2023-04-16T15:44:04.016Z,96143.03
2023-04-16T15:46:38.463Z,96144.53
2023-04-16T15:49:07.547Z,96147.16
2023-04-16T15:51:39.118Z,96148.66
2023-04-16T15:54:11.580Z,96148.75
2023-04-16T15:56:43.242Z,96144.75
2023-04-16T15:59:10.374Z,96141.25
2023-04-16T16:01:37.529Z,96146.31
2023-04-16T16:04:10.398Z,96145.47
2023-04-16T16:06:39.681Z,96144.63
2023-04-16T16:09:06.747Z,96151.72
2023-04-16T16:11:42.161Z,96152.31
2023-04-16T16:14:18.608Z,96149.81
2023-04-16T16:16:53.344Z,96154.97
2023-04-16T16:19:24.872Z,96148.94
2023-04-16T16:21:54.298Z,96153.06
2023-04-16T16:24:30.912Z,96144.59
2023-04-16T16:26:57.950Z,96159.41
2023-04-16T16:29:32.548Z,96146.53
2023-04-16T16:31:59.537Z,96157.72
2023-04-16T16:34:28.677Z,96165.94
2023-04-16T16:36:55.592Z,96159.28
2023-04-16T16:39:26.862Z,96165.22
2023-04-16T16:41:53.718Z,96166.78
2023-04-16T16:44:23.739Z,96163.84
2023-04-16T16:46:55.422Z,96169.75
2023-04-16T16:49:26.848Z,96162.13
2023-04-16T16:51:58.705Z,96163.41
2023-04-16T16:54:27.904Z,96159.84
2023-04-16T16:56:57.136Z,96164.06
2023-04-16T16:59:26.575Z,96145.16
2023-04-16T17:02:00.731Z,96160.22
2023-04-16T17:04:32.706Z,96158.13
2023-04-16T17:07:04.366Z,96157.59
2023-04-16T17:09:36.450Z,96163.50
2023-04-16T17:12:11.367Z,96170.16
2023-04-16T17:14:41.376Z,96172.28
2023-04-16T17:17:10.670Z,96177.63
2023-04-16T17:19:37.661Z,96176.72
2023-04-16T17:22:05.350Z,96185.03
2023-04-16T17:24:34.640Z,96184.56
2023-04-16T17:27:02.286Z,96189.88
2023-04-16T17:29:29.599Z,96190.63
2023-04-16T17:31:58.924Z,96187.00
2023-04-16T17:34:28.282Z,96199.47
2023-04-16T17:36:57.420Z,96185.72
2023-04-16T17:39:24.251Z,96197.69
2023-04-16T17:41:54.827Z,96205.69
2023-04-16T17:44:25.826Z,96212.75
2023-04-16T17:46:52.736Z,96204.31
2023-04-16T17:49:21.988Z,96209.28
2023-04-16T17:51:51.088Z,96211.28
2023-04-16T17:54:18.111Z,96192.56
2023-04-16T17:56:52.132Z,96212.84
2023-04-16T17:59:21.777Z,96226.16
2023-04-16T18:01:49.819Z,96216.31
2023-04-16T18:04:19.420Z,96230.56
2023-04-16T18:06:49.092Z,96213.97
2023-04-16T18:09:20.858Z,96230.44
2023-04-16T18:11:49.894Z,96227.59
2023-04-16T18:14:21.513Z,96236.25
2023-04-16T18:16:48.608Z,96239.59
2023-04-16T18:19:20.745Z,96245.41
2023-04-16T18:21:49.826Z,96247.41
2023-04-16T18:24:21.569Z,96248.94
2023-04-16T18:26:48.539Z,96248.34
2023-04-16T18:29:24.322Z,96250.66
2023-04-16T18:31:56.864Z,96247.41
2023-04-16T18:34:26.300Z,96257.66
2023-04-16T18:36:55.286Z,96248.25
2023-04-16T18:39:24.224Z,96263.91
2023-04-16T18:41:53.367Z,96260.44
2023-04-16T18:44:20.584Z,96254.53
2023-04-16T18:46:50.103Z,96260.66
2023-04-16T18:49:19.202Z,96276.50
2023-04-16T18:51:48.337Z,96260.78
2023-04-16T18:54:20.833Z,96274.47
2023-04-16T18:56:49.969Z,96264.78
2023-04-16T18:59:16.940Z,96271.94
2023-04-16T19:01:43.762Z,96281.97
2023-04-16T19:04:17.991Z,96281.31
2023-04-16T19:06:48.668Z,96277.13
2023-04-16T19:09:17.065Z,96286.31
2023-04-16T19:11:44.271Z,96268.28
2023-04-16T19:14:13.344Z,96288.81
2023-04-16T19:16:40.191Z,96296.72
2023-04-16T19:19:09.483Z,96288.81
2023-04-16T19:21:38.653Z,96297.47
2023-04-16T19:24:08.119Z,96287.09
2023-04-16T19:26:37.320Z,96289.53
2023-04-16T19:29:06.772Z,96296.09
2023-04-16T19:31:33.767Z,96296.94
2023-04-16T19:34:02.819Z,96296.31
2023-04-16T19:36:32.608Z,96293.25
2023-04-16T19:39:04.106Z,96277.16
2023-04-16T19:41:36.074Z,96274.84
2023-04-16T19:44:07.744Z,96275.13
2023-04-16T19:46:34.679Z,96294.41
2023-04-16T19:49:04.094Z,96294.91
2023-04-16T19:51:33.202Z,96304.25
2023-04-16T19:54:03.007Z,96283.44
2023-04-16T19:56:34.659Z,96306.34
2023-04-16T19:59:06.525Z,96292.53
2023-04-16T20:01:33.502Z,96283.53
2023-04-16T20:04:02.567Z,96278.56
2023-04-16T20:06:31.970Z,96289.78
2023-04-16T20:09:01.026Z,96279.19
2023-04-16T20:11:27.896Z,96285.97
2023-04-16T20:14:00.505Z,96291.88
2023-04-16T20:16:30.310Z,96297.06
2023-04-16T20:19:07.148Z,96300.84
2023-04-16T20:21:40.654Z,96281.69
2023-04-16T20:24:10.804Z,96282.81
2023-04-16T20:26:37.875Z,96275.03
2023-04-16T20:29:12.063Z,96277.25
2023-04-16T20:31:43.094Z,96295.28
2023-04-16T20:34:13.037Z,96279.13
2023-04-16T20:36:42.099Z,96291.53
2023-04-16T20:39:12.661Z,96285.97
2023-04-16T20:41:44.497Z,96280.75
2023-04-16T20:44:18.348Z,96288.69
2023-04-16T20:46:49.805Z,96282.91
2023-04-16T20:49:18.992Z,96292.03
2023-04-16T20:51:48.779Z,96293.28
2023-04-16T20:54:15.962Z,96287.53
2023-04-16T20:56:43.452Z,96293.44
2023-04-16T20:59:10.813Z,96282.34
2023-04-16T21:01:42.279Z,96282.47
2023-04-16T21:04:09.289Z,96291.63
2023-04-16T21:06:38.800Z,96291.75
2023-04-16T21:09:06.166Z,96294.72
2023-04-16T21:11:34.896Z,96295.59
2023-04-16T21:14:07.515Z,96297.94
2023-04-16T21:16:37.707Z,96304.75
2023-04-16T21:19:09.057Z,96294.00
2023-04-16T21:21:41.995Z,96277.56
2023-04-16T21:24:11.138Z,96300.44
2023-04-16T21:26:40.435Z,96305.00
2023-04-16T21:29:13.278Z,96296.09
2023-04-16T21:31:42.851Z,96317.75
2023-04-16T21:34:09.689Z,96296.84
2023-04-16T21:36:38.864Z,96305.13
2023-04-16T21:39:08.252Z,96300.56
2023-04-16T21:41:35.076Z,96304.13
2023-04-16T21:44:04.260Z,96301.19
2023-04-16T21:46:31.138Z,96305.63
2023-04-16T21:49:00.207Z,96300.94
2023-04-16T21:51:35.599Z,96305.38
2023-04-16T21:54:02.399Z,96297.97
2023-04-16T21:56:29.334Z,96280.81
2023-04-16T21:58:56.152Z,96306.84
2023-04-16T22:01:25.313Z,96304.00
2023-04-16T22:03:54.596Z,96297.97
2023-04-16T22:06:23.616Z,96287.09
2023-04-16T22:08:53.699Z,96292.28
2023-04-16T22:11:23.013Z,96281.41
2023-04-16T22:13:52.260Z,96285.97
2023-04-16T22:16:19.509Z,96284.25
2023-04-16T22:18:51.482Z,96277.56
2023-04-16T22:21:18.389Z,96289.03
2023-04-16T22:23:47.789Z,96282.63
2023-04-16T22:26:14.994Z,96298.69
2023-04-16T22:28:47.535Z,96284.47
2023-04-16T22:31:14.425Z,96275.94
2023-04-16T22:33:43.573Z,96282.63
2023-04-16T22:36:12.648Z,96279.44
2023-04-16T22:38:39.882Z,96272.38
2023-04-16T22:41:06.757Z,96276.19
2023-04-16T22:43:38.638Z,96279.66
2023-04-16T22:46:08.505Z,96278.41
2023-04-16T22:48:38.943Z,96282.00
2023-04-16T22:51:08.324Z,96285.72
2023-04-16T22:53:36.505Z,96284.34
2023-04-16T22:56:03.538Z,96290.03
2023-04-16T22:58:30.713Z,96276.81
2023-04-16T23:01:02.565Z,96269.91
2023-04-16T23:03:32.582Z,96282.50
2023-04-16T23:05:59.686Z,96276.72
2023-04-16T23:08:26.692Z,96279.31
2023-04-16T23:10:55.793Z,96286.22
2023-04-16T23:13:24.826Z,96285.34
2023-04-16T23:15:54.774Z,96275.34
2023-04-16T23:18:24.044Z,96285.13
2023-04-16T23:20:59.338Z,96282.03
2023-04-16T23:23:26.270Z,96288.84
2023-04-16T23:25:55.965Z,96294.16
2023-04-16T23:28:22.835Z,96290.31
2023-04-16T23:30:54.442Z,96271.06
2023-04-16T23:33:25.857Z,96277.09
2023-04-16T23:35:52.914Z,96282.53
2023-04-16T23:38:19.865Z,96288.84
2023-04-16T23:40:46.822Z,96290.31
2023-04-16T23:43:18.477Z,96282.53
2023-04-16T23:45:50.035Z,96288.06
2023-04-16T23:48:19.282Z,96265.59
2023-04-16T23:50:46.106Z,96286.59
2023-04-16T23:53:17.815Z,96268.94
2023-04-16T23:55:47.208Z,96261.41
2023-04-16T23:58:16.438Z,96261.91
